Mitilini, Greece
Current Conditions -  °F | °C
As of 10:50 AM on Wednesday 26 Nov 2014 (Local Time) from LGMT Reporting Station
Scattered Clouds Scattered Clouds  
Wind Chill: 11°   Ceiling: Unl
Heat Index: 11°   Visibility: 6mi
Dew Point:   Wind: 7mph
Humidity: 67%   Direction: 350°N
Pressure: 30.15"   Gusts: NA
Location:  39.11°N, 26.55°E
Report Text: LGMT 260750Z 35006KT 9999 SCT025 11/05 Q1021
Loading
Personal Weather Stations






























Interactive Weather Map New forecast layout! Learn more

10-Day Weather Forecast

Advertisements
Track Severe Weather on mobile